sensor_id;sensor_type;location;lat;lon;timestamp;temperature;humidity
9537;DHT22;4807;48.024;11.726;2022-12-07T00:00:10;2.50;99.90
9537;DHT22;4807;48.024;11.726;2022-12-07T00:03:19;2.50;99.90
9537;DHT22;4807;48.024;11.726;2022-12-07T00:06:28;2.50;99.90
9537;DHT22;4807;48.024;11.726;2022-12-07T00:09:36;2.50;99.90
9537;DHT22;4807;48.024;11.726;2022-12-07T00:12:46;2.50;99.90
9537;DHT22;4807;48.024;11.726;2022-12-07T00:15:56;2.50;99.90
9537;DHT22;4807;48.024;11.726;2022-12-07T00:19:10;2.50;99.90
9537;DHT22;4807;48.024;11.726;2022-12-07T00:22:20;2.50;99.90
9537;DHT22;4807;48.024;11.726;2022-12-07T00:25:28;2.50;99.90
9537;DHT22;4807;48.024;11.726;2022-12-07T00:28:39;2.50;99.90
9537;DHT22;4807;48.024;11.726;2022-12-07T00:31:49;2.50;99.90
9537;DHT22;4807;48.024;11.726;2022-12-07T00:34:57;2.50;99.90
9537;DHT22;4807;48.024;11.726;2022-12-07T00:38:05;2.40;99.90
9537;DHT22;4807;48.024;11.726;2022-12-07T00:41:16;2.50;99.90
9537;DHT22;4807;48.024;11.726;2022-12-07T00:44:25;2.50;99.90
9537;DHT22;4807;48.024;11.726;2022-12-07T00:47:35;2.50;99.90
9537;DHT22;4807;48.024;11.726;2022-12-07T00:50:44;2.50;99.90
9537;DHT22;4807;48.024;11.726;2022-12-07T00:53:52;2.30;99.90
9537;DHT22;4807;48.024;11.726;2022-12-07T00:57:01;2.40;99.90
9537;DHT22;4807;48.024;11.726;2022-12-07T01:00:09;2.30;99.90
9537;DHT22;4807;48.024;11.726;2022-12-07T01:03:20;2.40;99.90
9537;DHT22;4807;48.024;11.726;2022-12-07T01:06:28;2.40;99.90
9537;DHT22;4807;48.024;11.726;2022-12-07T01:09:37;2.40;99.90
9537;DHT22;4807;48.024;11.726;2022-12-07T01:12:46;2.40;99.90
9537;DHT22;4807;48.024;11.726;2022-12-07T01:15:57;2.30;99.90
9537;DHT22;4807;48.024;11.726;2022-12-07T01:19:09;2.30;99.90
9537;DHT22;4807;48.024;11.726;2022-12-07T01:22:17;2.20;99.90
9537;DHT22;4807;48.024;11.726;2022-12-07T01:25:25;2.30;99.90
9537;DHT22;4807;48.024;11.726;2022-12-07T01:28:34;2.30;99.90
9537;DHT22;4807;48.024;11.726;2022-12-07T01:31:42;2.20;99.90
9537;DHT22;4807;48.024;11.726;2022-12-07T01:34:52;2.20;99.90
9537;DHT22;4807;48.024;11.726;2022-12-07T01:38:01;2.20;99.90
9537;DHT22;4807;48.024;11.726;2022-12-07T01:41:10;2.20;99.90
9537;DHT22;4807;48.024;11.726;2022-12-07T01:44:22;2.30;99.90
9537;DHT22;4807;48.024;11.726;2022-12-07T01:47:32;2.30;99.90
9537;DHT22;4807;48.024;11.726;2022-12-07T01:50:42;2.30;99.90
9537;DHT22;4807;48.024;11.726;2022-12-07T01:53:52;2.40;99.90
9537;DHT22;4807;48.024;11.726;2022-12-07T01:57:03;2.30;99.90
9537;DHT22;4807;48.024;11.726;2022-12-07T02:00:15;2.20;99.90
9537;DHT22;4807;48.024;11.726;2022-12-07T02:03:29;2.10;99.90
9537;DHT22;4807;48.024;11.726;2022-12-07T02:06:43;2.20;99.90
9537;DHT22;4807;48.024;11.726;2022-12-07T02:09:53;2.00;99.90
9537;DHT22;4807;48.024;11.726;2022-12-07T02:13:05;2.00;99.90
9537;DHT22;4807;48.024;11.726;2022-12-07T02:16:25;2.00;99.90
9537;DHT22;4807;48.024;11.726;2022-12-07T02:23:45;2.00;99.90
9537;DHT22;4807;48.024;11.726;2022-12-07T02:27:40;2.10;99.90
9537;DHT22;4807;48.024;11.726;2022-12-07T02:31:01;2.00;99.90
9537;DHT22;4807;48.024;11.726;2022-12-07T02:34:20;2.10;99.90
9537;DHT22;4807;48.024;11.726;2022-12-07T02:37:38;2.10;99.90
9537;DHT22;4807;48.024;11.726;2022-12-07T02:40:54;2.20;99.90
9537;DHT22;4807;48.024;11.726;2022-12-07T02:44:07;2.10;99.90
9537;DHT22;4807;48.024;11.726;2022-12-07T02:47:22;2.00;99.90
9537;DHT22;4807;48.024;11.726;2022-12-07T02:50:32;2.10;99.90
9537;DHT22;4807;48.024;11.726;2022-12-07T02:53:42;2.10;99.90
9537;DHT22;4807;48.024;11.726;2022-12-07T02:56:57;2.10;99.90
9537;DHT22;4807;48.024;11.726;2022-12-07T03:00:16;2.10;99.90
9537;DHT22;4807;48.024;11.726;2022-12-07T03:03:29;2.00;99.90
9537;DHT22;4807;48.024;11.726;2022-12-07T03:06:43;2.10;99.90
9537;DHT22;4807;48.024;11.726;2022-12-07T03:10:01;2.10;99.90
9537;DHT22;4807;48.024;11.726;2022-12-07T03:13:21;2.10;99.90
9537;DHT22;4807;48.024;11.726;2022-12-07T03:16:35;2.10;99.90
9537;DHT22;4807;48.024;11.726;2022-12-07T03:19:53;2.10;99.90
9537;DHT22;4807;48.024;11.726;2022-12-07T03:23:08;2.00;99.90
9537;DHT22;4807;48.024;11.726;2022-12-07T03:26:19;2.10;99.90
9537;DHT22;4807;48.024;11.726;2022-12-07T03:29:35;2.10;99.90
9537;DHT22;4807;48.024;11.726;2022-12-07T03:32:54;2.10;99.90
9537;DHT22;4807;48.024;11.726;2022-12-07T03:36:11;2.00;99.90
9537;DHT22;4807;48.024;11.726;2022-12-07T03:39:28;2.00;99.90
9537;DHT22;4807;48.024;11.726;2022-12-07T03:42:41;1.90;99.90
9537;DHT22;4807;48.024;11.726;2022-12-07T03:45:57;2.00;99.90
9537;DHT22;4807;48.024;11.726;2022-12-07T03:49:22;2.00;99.90
9537;DHT22;4807;48.024;11.726;2022-12-07T03:52:39;2.00;99.90
9537;DHT22;4807;48.024;11.726;2022-12-07T03:55:50;2.00;99.90
9537;DHT22;4807;48.024;11.726;2022-12-07T03:59:02;2.00;99.90
9537;DHT22;4807;48.024;11.726;2022-12-07T04:02:13;2.00;99.90
9537;DHT22;4807;48.024;11.726;2022-12-07T04:05:22;2.10;99.90
9537;DHT22;4807;48.024;11.726;2022-12-07T04:08:32;2.10;99.90
9537;DHT22;4807;48.024;11.726;2022-12-07T04:11:40;2.10;99.90
9537;DHT22;4807;48.024;11.726;2022-12-07T04:14:48;2.10;99.90
9537;DHT22;4807;48.024;11.726;2022-12-07T04:17:57;2.10;99.90
9537;DHT22;4807;48.024;11.726;2022-12-07T04:21:05;2.10;99.90
9537;DHT22;4807;48.024;11.726;2022-12-07T04:24:15;2.10;99.90
9537;DHT22;4807;48.024;11.726;2022-12-07T04:27:24;2.20;99.90
9537;DHT22;4807;48.024;11.726;2022-12-07T04:30:32;2.20;99.90
9537;DHT22;4807;48.024;11.726;2022-12-07T04:33:40;2.20;99.90
9537;DHT22;4807;48.024;11.726;2022-12-07T04:36:49;2.10;99.90
9537;DHT22;4807;48.024;11.726;2022-12-07T04:39:59;2.10;99.90
9537;DHT22;4807;48.024;11.726;2022-12-07T04:43:08;2.10;99.90
9537;DHT22;4807;48.024;11.726;2022-12-07T04:46:16;2.10;99.90
9537;DHT22;4807;48.024;11.726;2022-12-07T04:49:25;2.00;99.90
9537;DHT22;4807;48.024;11.726;2022-12-07T04:52:34;2.00;99.90
9537;DHT22;4807;48.024;11.726;2022-12-07T04:55:43;2.10;99.90
9537;DHT22;4807;48.024;11.726;2022-12-07T04:58:53;2.00;99.90
9537;DHT22;4807;48.024;11.726;2022-12-07T05:02:01;2.00;99.90
9537;DHT22;4807;48.024;11.726;2022-12-07T05:05:11;2.00;99.90
9537;DHT22;4807;48.024;11.726;2022-12-07T05:08:19;2.00;99.90
9537;DHT22;4807;48.024;11.726;2022-12-07T05:11:29;2.00;99.90
9537;DHT22;4807;48.024;11.726;2022-12-07T05:14:47;2.10;99.90
9537;DHT22;4807;48.024;11.726;2022-12-07T05:17:55;2.10;99.90
9537;DHT22;4807;48.024;11.726;2022-12-07T05:21:03;2.20;99.90
9537;DHT22;4807;48.024;11.726;2022-12-07T05:24:13;2.20;99.90
9537;DHT22;4807;48.024;11.726;2022-12-07T05:27:24;2.10;99.90
9537;DHT22;4807;48.024;11.726;2022-12-07T05:30:32;2.10;99.90
9537;DHT22;4807;48.024;11.726;2022-12-07T05:33:40;2.10;99.90
9537;DHT22;4807;48.024;11.726;2022-12-07T05:36:49;2.00;99.90
9537;DHT22;4807;48.024;11.726;2022-12-07T05:39:57;2.00;99.90
9537;DHT22;4807;48.024;11.726;2022-12-07T05:43:08;1.90;99.90
9537;DHT22;4807;48.024;11.726;2022-12-07T05:46:16;1.80;99.90
9537;DHT22;4807;48.024;11.726;2022-12-07T05:49:24;1.60;99.90
9537;DHT22;4807;48.024;11.726;2022-12-07T05:52:33;1.60;99.90
9537;DHT22;4807;48.024;11.726;2022-12-07T05:55:41;1.60;99.90
9537;DHT22;4807;48.024;11.726;2022-12-07T05:58:52;1.50;99.90
9537;DHT22;4807;48.024;11.726;2022-12-07T06:02:18;1.50;99.90
9537;DHT22;4807;48.024;11.726;2022-12-07T06:05:27;1.50;99.90
9537;DHT22;4807;48.024;11.726;2022-12-07T06:08:35;1.50;99.90
9537;DHT22;4807;48.024;11.726;2022-12-07T06:11:44;1.50;99.90
9537;DHT22;4807;48.024;11.726;2022-12-07T06:15:11;1.40;99.90
9537;DHT22;4807;48.024;11.726;2022-12-07T06:18:20;1.50;99.90
9537;DHT22;4807;48.024;11.726;2022-12-07T06:21:29;1.60;99.90
9537;DHT22;4807;48.024;11.726;2022-12-07T06:24:38;1.60;99.90
9537;DHT22;4807;48.024;11.726;2022-12-07T06:27:47;1.60;99.90
9537;DHT22;4807;48.024;11.726;2022-12-07T06:30:59;1.70;99.90
9537;DHT22;4807;48.024;11.726;2022-12-07T06:34:10;1.70;99.90
9537;DHT22;4807;48.024;11.726;2022-12-07T06:37:20;1.70;99.90
9537;DHT22;4807;48.024;11.726;2022-12-07T06:40:28;1.80;99.90
9537;DHT22;4807;48.024;11.726;2022-12-07T06:43:37;1.80;99.90
9537;DHT22;4807;48.024;11.726;2022-12-07T06:46:47;1.80;99.90
9537;DHT22;4807;48.024;11.726;2022-12-07T06:49:56;1.80;99.90
9537;DHT22;4807;48.024;11.726;2022-12-07T06:53:05;1.70;99.90
9537;DHT22;4807;48.024;11.726;2022-12-07T06:56:13;1.70;99.90
9537;DHT22;4807;48.024;11.726;2022-12-07T06:59:22;1.70;99.90
9537;DHT22;4807;48.024;11.726;2022-12-07T07:02:31;1.70;99.90
9537;DHT22;4807;48.024;11.726;2022-12-07T07:05:40;1.80;99.90
9537;DHT22;4807;48.024;11.726;2022-12-07T07:08:50;1.70;99.90
9537;DHT22;4807;48.024;11.726;2022-12-07T07:11:58;1.70;99.90
9537;DHT22;4807;48.024;11.726;2022-12-07T07:15:07;1.60;99.90
9537;DHT22;4807;48.024;11.726;2022-12-07T07:18:18;1.60;99.90
9537;DHT22;4807;48.024;11.726;2022-12-07T07:21:27;1.60;99.90
9537;DHT22;4807;48.024;11.726;2022-12-07T07:24:35;0.00;99.90
9537;DHT22;4807;48.024;11.726;2022-12-07T07:27:44;1.70;99.90
9537;DHT22;4807;48.024;11.726;2022-12-07T07:30:52;1.70;99.90
9537;DHT22;4807;48.024;11.726;2022-12-07T07:34:02;1.80;99.90
9537;DHT22;4807;48.024;11.726;2022-12-07T07:37:10;1.80;99.90
9537;DHT22;4807;48.024;11.726;2022-12-07T07:40:28;1.80;99.90
9537;DHT22;4807;48.024;11.726;2022-12-07T07:43:37;1.90;99.90
9537;DHT22;4807;48.024;11.726;2022-12-07T07:46:45;1.90;99.90
9537;DHT22;4807;48.024;11.726;2022-12-07T07:49:55;1.90;99.90
9537;DHT22;4807;48.024;11.726;2022-12-07T07:53:03;2.00;99.90
9537;DHT22;4807;48.024;11.726;2022-12-07T07:56:12;2.10;99.90
9537;DHT22;4807;48.024;11.726;2022-12-07T07:59:20;2.10;99.90
9537;DHT22;4807;48.024;11.726;2022-12-07T08:02:28;2.10;99.90
9537;DHT22;4807;48.024;11.726;2022-12-07T08:05:38;2.10;99.90
9537;DHT22;4807;48.024;11.726;2022-12-07T08:08:47;2.20;99.90
9537;DHT22;4807;48.024;11.726;2022-12-07T08:11:55;2.30;99.90
9537;DHT22;4807;48.024;11.726;2022-12-07T08:15:04;2.20;99.90
9537;DHT22;4807;48.024;11.726;2022-12-07T08:18:14;2.20;99.90
9537;DHT22;4807;48.024;11.726;2022-12-07T08:21:25;2.20;99.90
9537;DHT22;4807;48.024;11.726;2022-12-07T08:24:33;2.20;99.90
9537;DHT22;4807;48.024;11.726;2022-12-07T08:27:42;2.30;99.90
9537;DHT22;4807;48.024;11.726;2022-12-07T08:30:50;2.40;99.90
9537;DHT22;4807;48.024;11.726;2022-12-07T08:33:59;2.70;99.90
9537;DHT22;4807;48.024;11.726;2022-12-07T08:37:09;2.60;99.90
9537;DHT22;4807;48.024;11.726;2022-12-07T08:40:17;2.60;99.90
9537;DHT22;4807;48.024;11.726;2022-12-07T08:43:28;2.60;99.90
9537;DHT22;4807;48.024;11.726;2022-12-07T08:46:38;2.70;99.90
9537;DHT22;4807;48.024;11.726;2022-12-07T08:49:51;2.60;99.90
9537;DHT22;4807;48.024;11.726;2022-12-07T08:53:03;2.70;99.90
9537;DHT22;4807;48.024;11.726;2022-12-07T08:56:13;2.70;99.90
9537;DHT22;4807;48.024;11.726;2022-12-07T08:59:22;2.70;99.90
9537;DHT22;4807;48.024;11.726;2022-12-07T09:02:31;2.80;99.90
9537;DHT22;4807;48.024;11.726;2022-12-07T09:05:39;2.90;99.90
9537;DHT22;4807;48.024;11.726;2022-12-07T09:08:51;3.00;99.90
9537;DHT22;4807;48.024;11.726;2022-12-07T09:12:03;3.00;99.90
9537;DHT22;4807;48.024;11.726;2022-12-07T09:15:12;3.00;99.90
9537;DHT22;4807;48.024;11.726;2022-12-07T09:18:20;3.00;99.90
9537;DHT22;4807;48.024;11.726;2022-12-07T09:21:29;3.30;99.90
9537;DHT22;4807;48.024;11.726;2022-12-07T09:24:38;3.20;99.90
9537;DHT22;4807;48.024;11.726;2022-12-07T09:27:47;3.30;99.90
9537;DHT22;4807;48.024;11.726;2022-12-07T09:30:56;3.40;99.90
9537;DHT22;4807;48.024;11.726;2022-12-07T09:34:24;3.40;99.90
9537;DHT22;4807;48.024;11.726;2022-12-07T09:37:33;3.60;99.90
9537;DHT22;4807;48.024;11.726;2022-12-07T09:40:45;3.60;99.90
9537;DHT22;4807;48.024;11.726;2022-12-07T09:44:02;3.60;99.90
9537;DHT22;4807;48.024;11.726;2022-12-07T09:47:12;3.60;99.90
9537;DHT22;4807;48.024;11.726;2022-12-07T09:50:22;3.70;99.90
9537;DHT22;4807;48.024;11.726;2022-12-07T09:53:34;3.50;99.90
9537;DHT22;4807;48.024;11.726;2022-12-07T09:56:46;3.40;99.90
9537;DHT22;4807;48.024;11.726;2022-12-07T09:59:56;3.40;99.90
9537;DHT22;4807;48.024;11.726;2022-12-07T10:03:11;3.40;99.90
9537;DHT22;4807;48.024;11.726;2022-12-07T10:06:20;3.60;99.90
9537;DHT22;4807;48.024;11.726;2022-12-07T10:09:29;3.70;99.90
9537;DHT22;4807;48.024;11.726;2022-12-07T10:13:00;3.80;99.90
9537;DHT22;4807;48.024;11.726;2022-12-07T10:16:38;4.00;99.90
9537;DHT22;4807;48.024;11.726;2022-12-07T10:19:48;4.00;99.90
9537;DHT22;4807;48.024;11.726;2022-12-07T10:22:59;4.00;99.90
9537;DHT22;4807;48.024;11.726;2022-12-07T10:26:21;4.00;99.90
9537;DHT22;4807;48.024;11.726;2022-12-07T10:29:38;3.90;99.90
9537;DHT22;4807;48.024;11.726;2022-12-07T10:32:47;3.90;99.90
9537;DHT22;4807;48.024;11.726;2022-12-07T10:35:56;4.00;99.90
9537;DHT22;4807;48.024;11.726;2022-12-07T10:39:12;4.20;99.90
9537;DHT22;4807;48.024;11.726;2022-12-07T10:42:23;4.20;99.90
9537;DHT22;4807;48.024;11.726;2022-12-07T10:45:35;4.30;99.90
9537;DHT22;4807;48.024;11.726;2022-12-07T10:57:01;4.20;99.90
9537;DHT22;4807;48.024;11.726;2022-12-07T11:00:19;4.20;99.90
9537;DHT22;4807;48.024;11.726;2022-12-07T11:03:45;4.30;99.90
9537;DHT22;4807;48.024;11.726;2022-12-07T11:07:10;4.20;99.90
9537;DHT22;4807;48.024;11.726;2022-12-07T11:10:30;4.10;99.90
9537;DHT22;4807;48.024;11.726;2022-12-07T11:13:51;4.00;99.90
9537;DHT22;4807;48.024;11.726;2022-12-07T11:17:07;3.90;99.90
9537;DHT22;4807;48.024;11.726;2022-12-07T11:20:37;3.90;99.90
9537;DHT22;4807;48.024;11.726;2022-12-07T11:24:00;4.00;99.90
9537;DHT22;4807;48.024;11.726;2022-12-07T11:27:21;3.90;99.90
9537;DHT22;4807;48.024;11.726;2022-12-07T11:30:37;3.80;99.90
9537;DHT22;4807;48.024;11.726;2022-12-07T11:33:55;3.70;99.90
9537;DHT22;4807;48.024;11.726;2022-12-07T11:37:13;3.70;99.90
9537;DHT22;4807;48.024;11.726;2022-12-07T11:40:28;3.60;99.90
9537;DHT22;4807;48.024;11.726;2022-12-07T11:43:52;3.60;99.90
9537;DHT22;4807;48.024;11.726;2022-12-07T11:47:07;3.70;99.90
9537;DHT22;4807;48.024;11.726;2022-12-07T11:50:27;3.70;99.90
9537;DHT22;4807;48.024;11.726;2022-12-07T11:53:45;3.70;99.90
9537;DHT22;4807;48.024;11.726;2022-12-07T11:57:02;3.80;99.90
9537;DHT22;4807;48.024;11.726;2022-12-07T12:00:18;3.90;99.90
9537;DHT22;4807;48.024;11.726;2022-12-07T12:03:32;4.00;99.90
9537;DHT22;4807;48.024;11.726;2022-12-07T12:06:45;3.80;99.90
9537;DHT22;4807;48.024;11.726;2022-12-07T12:09:59;3.70;99.90
9537;DHT22;4807;48.024;11.726;2022-12-07T12:13:32;3.60;99.90
9537;DHT22;4807;48.024;11.726;2022-12-07T12:21:10;3.50;99.90
9537;DHT22;4807;48.024;11.726;2022-12-07T12:24:27;3.50;99.90
9537;DHT22;4807;48.024;11.726;2022-12-07T12:27:46;3.30;99.90
9537;DHT22;4807;48.024;11.726;2022-12-07T12:31:10;3.40;99.90
9537;DHT22;4807;48.024;11.726;2022-12-07T12:34:33;3.50;99.90
9537;DHT22;4807;48.024;11.726;2022-12-07T12:37:54;3.40;99.90
9537;DHT22;4807;48.024;11.726;2022-12-07T12:41:57;3.40;99.90
9537;DHT22;4807;48.024;11.726;2022-12-07T12:45:21;3.30;99.90
9537;DHT22;4807;48.024;11.726;2022-12-07T12:48:36;3.30;99.90
9537;DHT22;4807;48.024;11.726;2022-12-07T12:51:46;3.50;99.90
9537;DHT22;4807;48.024;11.726;2022-12-07T12:54:59;3.40;99.90
9537;DHT22;4807;48.024;11.726;2022-12-07T12:58:36;3.50;99.90
9537;DHT22;4807;48.024;11.726;2022-12-07T13:01:54;3.30;99.90
9537;DHT22;4807;48.024;11.726;2022-12-07T13:05:18;3.30;99.90
9537;DHT22;4807;48.024;11.726;2022-12-07T13:08:28;3.40;99.90
9537;DHT22;4807;48.024;11.726;2022-12-07T13:11:44;3.40;99.90
9537;DHT22;4807;48.024;11.726;2022-12-07T13:14:59;3.40;99.90
9537;DHT22;4807;48.024;11.726;2022-12-07T13:18:24;3.40;99.90
9537;DHT22;4807;48.024;11.726;2022-12-07T13:21:43;3.30;99.90
9537;DHT22;4807;48.024;11.726;2022-12-07T13:24:55;3.40;99.90
9537;DHT22;4807;48.024;11.726;2022-12-07T13:28:13;3.80;99.90
9537;DHT22;4807;48.024;11.726;2022-12-07T13:31:32;3.60;99.90
9537;DHT22;4807;48.024;11.726;2022-12-07T13:34:42;3.60;99.90
9537;DHT22;4807;48.024;11.726;2022-12-07T13:37:51;3.70;99.90
9537;DHT22;4807;48.024;11.726;2022-12-07T13:41:01;3.70;99.90
9537;DHT22;4807;48.024;11.726;2022-12-07T13:44:21;3.70;99.90
9537;DHT22;4807;48.024;11.726;2022-12-07T13:47:35;3.70;99.90
9537;DHT22;4807;48.024;11.726;2022-12-07T13:50:53;3.80;99.90
9537;DHT22;4807;48.024;11.726;2022-12-07T13:54:10;3.70;99.90
9537;DHT22;4807;48.024;11.726;2022-12-07T13:57:19;3.70;99.90
9537;DHT22;4807;48.024;11.726;2022-12-07T14:00:29;3.80;99.90
9537;DHT22;4807;48.024;11.726;2022-12-07T14:03:39;3.70;99.90
9537;DHT22;4807;48.024;11.726;2022-12-07T14:06:49;3.70;99.90
9537;DHT22;4807;48.024;11.726;2022-12-07T14:10:00;3.50;99.90
9537;DHT22;4807;48.024;11.726;2022-12-07T14:13:29;3.50;99.90
9537;DHT22;4807;48.024;11.726;2022-12-07T14:16:40;3.50;99.90
9537;DHT22;4807;48.024;11.726;2022-12-07T14:19:52;3.50;99.90
9537;DHT22;4807;48.024;11.726;2022-12-07T14:23:02;3.50;99.90
9537;DHT22;4807;48.024;11.726;2022-12-07T14:26:20;3.50;99.90
9537;DHT22;4807;48.024;11.726;2022-12-07T14:29:32;3.40;99.90
9537;DHT22;4807;48.024;11.726;2022-12-07T14:32:41;3.40;99.90
9537;DHT22;4807;48.024;11.726;2022-12-07T14:35:56;3.40;99.90
9537;DHT22;4807;48.024;11.726;2022-12-07T14:39:05;3.20;99.90
9537;DHT22;4807;48.024;11.726;2022-12-07T14:42:19;3.10;99.90
9537;DHT22;4807;48.024;11.726;2022-12-07T14:45:29;3.00;99.90
9537;DHT22;4807;48.024;11.726;2022-12-07T14:48:38;2.90;99.90
9537;DHT22;4807;48.024;11.726;2022-12-07T14:52:13;2.90;99.90
9537;DHT22;4807;48.024;11.726;2022-12-07T14:55:44;2.80;99.90
9537;DHT22;4807;48.024;11.726;2022-12-07T14:58:53;2.80;99.90
9537;DHT22;4807;48.024;11.726;2022-12-07T15:02:03;2.60;99.90
9537;DHT22;4807;48.024;11.726;2022-12-07T15:05:12;2.30;99.90
9537;DHT22;4807;48.024;11.726;2022-12-07T15:08:24;2.10;99.90
9537;DHT22;4807;48.024;11.726;2022-12-07T15:11:32;1.70;99.90
9537;DHT22;4807;48.024;11.726;2022-12-07T15:14:44;1.70;99.90
9537;DHT22;4807;48.024;11.726;2022-12-07T15:17:53;1.60;99.90
9537;DHT22;4807;48.024;11.726;2022-12-07T15:21:01;1.50;99.90
9537;DHT22;4807;48.024;11.726;2022-12-07T15:24:12;1.30;99.90
9537;DHT22;4807;48.024;11.726;2022-12-07T15:27:20;1.20;99.90
9537;DHT22;4807;48.024;11.726;2022-12-07T15:30:29;1.10;99.90
9537;DHT22;4807;48.024;11.726;2022-12-07T15:33:37;1.00;99.90
9537;DHT22;4807;48.024;11.726;2022-12-07T15:36:46;0.90;99.90
9537;DHT22;4807;48.024;11.726;2022-12-07T15:39:56;0.80;99.90
9537;DHT22;4807;48.024;11.726;2022-12-07T15:43:13;0.80;99.90
9537;DHT22;4807;48.024;11.726;2022-12-07T15:46:37;0.90;99.90
9537;DHT22;4807;48.024;11.726;2022-12-07T15:49:47;0.80;99.90
9537;DHT22;4807;48.024;11.726;2022-12-07T15:52:55;0.70;99.90
9537;DHT22;4807;48.024;11.726;2022-12-07T15:56:08;0.60;99.90
9537;DHT22;4807;48.024;11.726;2022-12-07T15:59:17;0.70;99.90
9537;DHT22;4807;48.024;11.726;2022-12-07T16:02:25;0.70;99.90
9537;DHT22;4807;48.024;11.726;2022-12-07T16:05:34;0.70;99.90
9537;DHT22;4807;48.024;11.726;2022-12-07T16:08:42;0.70;99.90
9537;DHT22;4807;48.024;11.726;2022-12-07T16:11:52;0.70;99.90
9537;DHT22;4807;48.024;11.726;2022-12-07T16:15:01;0.90;99.90
9537;DHT22;4807;48.024;11.726;2022-12-07T16:18:11;0.70;99.90
9537;DHT22;4807;48.024;11.726;2022-12-07T16:21:20;0.70;99.90
9537;DHT22;4807;48.024;11.726;2022-12-07T16:24:31;0.70;99.90
9537;DHT22;4807;48.024;11.726;2022-12-07T16:27:41;0.70;99.90
9537;DHT22;4807;48.024;11.726;2022-12-07T16:31:00;0.70;99.90
9537;DHT22;4807;48.024;11.726;2022-12-07T16:34:10;0.70;99.90
9537;DHT22;4807;48.024;11.726;2022-12-07T16:37:18;0.70;99.90
9537;DHT22;4807;48.024;11.726;2022-12-07T16:40:26;0.70;99.90
9537;DHT22;4807;48.024;11.726;2022-12-07T16:43:36;0.70;99.90
9537;DHT22;4807;48.024;11.726;2022-12-07T16:46:45;0.70;99.90
9537;DHT22;4807;48.024;11.726;2022-12-07T16:49:53;0.70;99.90
9537;DHT22;4807;48.024;11.726;2022-12-07T16:53:03;0.60;99.90
9537;DHT22;4807;48.024;11.726;2022-12-07T16:56:13;0.60;99.90
9537;DHT22;4807;48.024;11.726;2022-12-07T16:59:24;0.60;99.90
9537;DHT22;4807;48.024;11.726;2022-12-07T17:02:33;0.70;99.90
9537;DHT22;4807;48.024;11.726;2022-12-07T17:05:42;0.80;99.90
9537;DHT22;4807;48.024;11.726;2022-12-07T17:08:52;0.80;99.90
9537;DHT22;4807;48.024;11.726;2022-12-07T17:12:01;0.80;99.90
9537;DHT22;4807;48.024;11.726;2022-12-07T17:15:11;0.90;99.90
9537;DHT22;4807;48.024;11.726;2022-12-07T17:18:29;1.00;99.90
9537;DHT22;4807;48.024;11.726;2022-12-07T17:21:38;1.00;99.90
9537;DHT22;4807;48.024;11.726;2022-12-07T17:24:47;1.00;99.90
9537;DHT22;4807;48.024;11.726;2022-12-07T17:27:57;1.10;99.90
9537;DHT22;4807;48.024;11.726;2022-12-07T17:31:09;1.10;99.90
9537;DHT22;4807;48.024;11.726;2022-12-07T17:34:20;1.00;99.90
9537;DHT22;4807;48.024;11.726;2022-12-07T17:37:30;1.10;99.90
9537;DHT22;4807;48.024;11.726;2022-12-07T17:40:39;1.10;99.90
9537;DHT22;4807;48.024;11.726;2022-12-07T17:43:47;1.20;99.90
9537;DHT22;4807;48.024;11.726;2022-12-07T17:46:57;1.20;99.90
9537;DHT22;4807;48.024;11.726;2022-12-07T17:50:09;1.10;99.90
9537;DHT22;4807;48.024;11.726;2022-12-07T17:53:17;1.10;99.90
9537;DHT22;4807;48.024;11.726;2022-12-07T17:56:25;1.10;99.90
9537;DHT22;4807;48.024;11.726;2022-12-07T17:59:35;1.20;99.90
9537;DHT22;4807;48.024;11.726;2022-12-07T18:02:45;1.20;99.90
9537;DHT22;4807;48.024;11.726;2022-12-07T18:05:53;1.30;99.90
9537;DHT22;4807;48.024;11.726;2022-12-07T18:09:02;1.30;99.90
9537;DHT22;4807;48.024;11.726;2022-12-07T18:12:11;1.20;99.90
9537;DHT22;4807;48.024;11.726;2022-12-07T18:15:20;1.30;99.90
9537;DHT22;4807;48.024;11.726;2022-12-07T18:18:29;1.30;99.90
9537;DHT22;4807;48.024;11.726;2022-12-07T18:21:38;1.40;99.90
9537;DHT22;4807;48.024;11.726;2022-12-07T18:24:46;1.40;99.90
9537;DHT22;4807;48.024;11.726;2022-12-07T18:27:55;1.40;99.90
9537;DHT22;4807;48.024;11.726;2022-12-07T18:31:03;1.40;99.90
9537;DHT22;4807;48.024;11.726;2022-12-07T18:34:22;1.50;99.90
9537;DHT22;4807;48.024;11.726;2022-12-07T18:37:31;1.50;99.90
9537;DHT22;4807;48.024;11.726;2022-12-07T18:40:40;1.70;99.90
9537;DHT22;4807;48.024;11.726;2022-12-07T18:43:50;1.70;99.90
9537;DHT22;4807;48.024;11.726;2022-12-07T18:46:58;1.80;99.90
9537;DHT22;4807;48.024;11.726;2022-12-07T18:50:09;1.70;99.90
9537;DHT22;4807;48.024;11.726;2022-12-07T18:53:18;1.70;99.90
9537;DHT22;4807;48.024;11.726;2022-12-07T18:56:26;1.60;99.90
9537;DHT22;4807;48.024;11.726;2022-12-07T18:59:34;1.50;99.90
9537;DHT22;4807;48.024;11.726;2022-12-07T19:02:56;1.40;99.90
9537;DHT22;4807;48.024;11.726;2022-12-07T19:06:06;1.20;99.90
9537;DHT22;4807;48.024;11.726;2022-12-07T19:09:16;1.20;99.90
9537;DHT22;4807;48.024;11.726;2022-12-07T19:12:25;1.30;99.90
9537;DHT22;4807;48.024;11.726;2022-12-07T19:15:34;1.30;99.90
9537;DHT22;4807;48.024;11.726;2022-12-07T19:18:42;1.40;99.90
9537;DHT22;4807;48.024;11.726;2022-12-07T19:21:59;1.40;99.90
9537;DHT22;4807;48.024;11.726;2022-12-07T19:25:08;1.40;99.90
9537;DHT22;4807;48.024;11.726;2022-12-07T19:28:16;1.30;99.90
9537;DHT22;4807;48.024;11.726;2022-12-07T19:31:24;1.30;99.90
9537;DHT22;4807;48.024;11.726;2022-12-07T19:34:33;1.30;99.90
9537;DHT22;4807;48.024;11.726;2022-12-07T19:37:43;1.30;99.90
9537;DHT22;4807;48.024;11.726;2022-12-07T19:40:51;1.30;99.90
9537;DHT22;4807;48.024;11.726;2022-12-07T19:44:00;1.40;99.90
9537;DHT22;4807;48.024;11.726;2022-12-07T19:47:11;1.50;99.90
9537;DHT22;4807;48.024;11.726;2022-12-07T19:50:22;1.50;99.90
9537;DHT22;4807;48.024;11.726;2022-12-07T19:53:32;1.50;99.90
9537;DHT22;4807;48.024;11.726;2022-12-07T19:56:41;1.60;99.90
9537;DHT22;4807;48.024;11.726;2022-12-07T19:59:50;1.50;99.90
9537;DHT22;4807;48.024;11.726;2022-12-07T20:03:00;1.50;99.90
9537;DHT22;4807;48.024;11.726;2022-12-07T20:06:10;1.50;99.90
9537;DHT22;4807;48.024;11.726;2022-12-07T20:09:22;1.40;99.90
9537;DHT22;4807;48.024;11.726;2022-12-07T20:12:37;1.40;99.90
9537;DHT22;4807;48.024;11.726;2022-12-07T20:16:04;1.40;99.90
9537;DHT22;4807;48.024;11.726;2022-12-07T20:19:27;1.40;99.90
9537;DHT22;4807;48.024;11.726;2022-12-07T20:22:36;1.40;99.90
9537;DHT22;4807;48.024;11.726;2022-12-07T20:25:47;1.40;99.90
9537;DHT22;4807;48.024;11.726;2022-12-07T20:28:56;1.40;99.90
9537;DHT22;4807;48.024;11.726;2022-12-07T20:32:13;1.30;99.90
9537;DHT22;4807;48.024;11.726;2022-12-07T20:35:25;1.30;99.90
9537;DHT22;4807;48.024;11.726;2022-12-07T20:38:33;1.30;99.90
9537;DHT22;4807;48.024;11.726;2022-12-07T20:41:44;1.40;99.90
9537;DHT22;4807;48.024;11.726;2022-12-07T20:45:21;1.30;99.90
9537;DHT22;4807;48.024;11.726;2022-12-07T20:48:38;1.40;99.90
9537;DHT22;4807;48.024;11.726;2022-12-07T20:51:46;1.30;99.90
9537;DHT22;4807;48.024;11.726;2022-12-07T20:54:56;1.30;99.90
9537;DHT22;4807;48.024;11.726;2022-12-07T20:58:08;1.30;99.90
9537;DHT22;4807;48.024;11.726;2022-12-07T21:01:17;1.40;99.90
9537;DHT22;4807;48.024;11.726;2022-12-07T21:04:26;1.30;99.90
9537;DHT22;4807;48.024;11.726;2022-12-07T21:07:35;1.30;99.90
9537;DHT22;4807;48.024;11.726;2022-12-07T21:10:45;1.30;99.90